^^
Saratoga-Weather Station Historical Data
Daily Summary for July 26, 2020 Units:  Both    English   Metric
Daily Weekly Monthly Yearly Custom
  High: Low: Average:
Temperature: 52.9 °F /  11.6 °C 46.8 °F /  8.2 °C 49.1 °F /  9.5 °C
Dew Point: 47.1 °F /  8.4 °C 40.6 °F /  4.8 °C 44.8 °F /  7.1 °C
Humidity: 93% 71% 85%
Wind Speed: 17mph /  27.4km/h - 7.8mph /  12.5km/h
Wind Gust: 24mph /  38.6km/h - -
Wind- - West
Pressure: 29.6 in /  1001.7 hPa 29.5 in /  999.3 hPa -
Precipitation: 0.04 in /  1.0 mm    
Historical Graphs
 
 
Tabular Data for July 26, 2020
Time Temperature Dew Point Pressure Wind Wind Speed Wind Gust Humidity Rainfall Rate (Hourly) solar
00:03 48.9 °F /  9.4 °C 44.6 °F /  7 °C 29.6in /  1001.4hPa NW 6.9mph /  11.1km/h 7mph /  11.3km/h 85% 0in /  0.0mm 0 W/m2
00:08 48.7 °F /  9.3 °C 44.8 °F /  7.1 °C 29.6in /  1001.4hPa WNW 4.9mph /  7.9km/h 13mph /  20.9km/h 86% 0in /  0.0mm 0 W/m2
00:13 48.7 °F /  9.3 °C 44.8 °F /  7.1 °C 29.6in /  1001.4hPa West 6.9mph /  11.1km/h 8mph /  12.9km/h 86% 0in /  0.0mm 0 W/m2
00:18 48.6 °F /  9.2 °C 44.6 °F /  7 °C 29.6in /  1001.4hPa WNW 6mph /  9.7km/h 13mph /  20.9km/h 86% 0.01in /  0.2mm 0 W/m2
00:23 48.6 °F /  9.2 °C 44.8 °F /  7.1 °C 29.6in /  1001.4hPa WNW 8.9mph /  14.3km/h 12mph /  19.3km/h 87% 0.01in /  0.2mm 0 W/m2
00:28 48.6 °F /  9.2 °C 44.8 °F /  7.1 °C 29.6in /  1001.4hPa WSW 2.9mph /  4.7km/h 9mph /  14.5km/h 87% 0.01in /  0.2mm 0 W/m2
00:33 48.6 °F /  9.2 °C 44.8 °F /  7.1 °C 29.6in /  1001.4hPa West 6mph /  9.7km/h 10mph /  16.1km/h 87% 0.01in /  0.2mm 0 W/m2
00:38 48.6 °F /  9.2 °C 44.6 °F /  7 °C 29.6in /  1001.4hPa West 8.1mph /  13km/h 13mph /  20.9km/h 86% 0.01in /  0.2mm 0 W/m2
00:43 48.6 °F /  9.2 °C 44.8 °F /  7.1 °C 29.6in /  1001.4hPa WNW 8.9mph /  14.3km/h 14mph /  22.5km/h 87% 0.02in /  0.5mm 0 W/m2
00:48 48.6 °F /  9.2 °C 44.6 °F /  7 °C 29.6in /  1001.4hPa West 6mph /  9.7km/h 10mph /  16.1km/h 86% 0.02in /  0.5mm 0 W/m2
00:53 48.6 °F /  9.2 °C 44.6 °F /  7 °C 29.6in /  1001.4hPa West 10.1mph /  16.3km/h 11mph /  17.7km/h 86% 0.02in /  0.5mm 0 W/m2
00:58 48.6 °F /  9.2 °C 43.9 °F /  6.6 °C 29.6in /  1001.4hPa West 13mph /  20.9km/h 15mph /  24.1km/h 84% 0.02in /  0.5mm 0 W/m2
01:03 48.7 °F /  9.3 °C 44.1 °F /  6.7 °C 29.6in /  1001.4hPa West 13mph /  20.9km/h 15mph /  24.1km/h 84% 0.02in /  0.5mm 0 W/m2
01:08 48.9 °F /  9.4 °C 43.7 °F /  6.5 °C 29.6in /  1001.4hPa West 8.1mph /  13km/h 13mph /  20.9km/h 82% 0.02in /  0.5mm 0 W/m2
01:14 48.9 °F /  9.4 °C 43.3 °F /  6.3 °C 29.6in /  1001.4hPa WNW 4.9mph /  7.9km/h 11mph /  17.7km/h 81% 0.02in /  0.5mm 0 W/m2
01:19 48.9 °F /  9.4 °C 43.3 °F /  6.3 °C 29.6in /  1001.4hPa WSW 4.9mph /  7.9km/h 9mph /  14.5km/h 81% 0.01in /  0.2mm 0 W/m2
01:24 48.9 °F /  9.4 °C 43.3 °F /  6.3 °C 29.6in /  1001.4hPa WNW 4mph /  6.4km/h 9mph /  14.5km/h 81% 0.01in /  0.2mm 0 W/m2
01:29 48.9 °F /  9.4 °C 43.3 °F /  6.3 °C 29.6in /  1001.4hPa WSW 4mph /  6.4km/h 10mph /  16.1km/h 81% 0.01in /  0.2mm 0 W/m2
01:34 48.9 °F /  9.4 °C 43 °F /  6.1 °C 29.6in /  1001.4hPa WNW 4mph /  6.4km/h 6mph /  9.7km/h 80% 0.01in /  0.2mm 0 W/m2
01:39 48.9 °F /  9.4 °C 43 °F /  6.1 °C 29.6in /  1001.4hPa WNW 4mph /  6.4km/h 10mph /  16.1km/h 80% 0.01in /  0.2mm 0 W/m2
01:44 48.9 °F /  9.4 °C 43 °F /  6.1 °C 29.6in /  1001.4hPa WSW 4.9mph /  7.9km/h 8mph /  12.9km/h 80% 0in /  0.0mm 0 W/m2
01:49 48.9 °F /  9.4 °C 43.3 °F /  6.3 °C 29.6in /  1001.4hPa West 10.1mph /  16.3km/h 10mph /  16.1km/h 81% 0in /  0.0mm 0 W/m2
01:54 48.9 °F /  9.4 °C 43 °F /  6.1 °C 29.6in /  1001.4hPa West 2.9mph /  4.7km/h 11mph /  17.7km/h 80% 0in /  0.0mm 0 W/m2
01:59 49.1 °F /  9.5 °C 43.2 °F /  6.2 °C 29.6in /  1001.4hPa NW 4mph /  6.4km/h 12mph /  19.3km/h 80% 0in /  0.0mm 0 W/m2
02:04 48.9 °F /  9.4 °C 43 °F /  6.1 °C 29.6in /  1001.4hPa West 8.9mph /  14.3km/h 15mph /  24.1km/h 80% 0in /  0.0mm 0 W/m2
02:09 49.1 °F /  9.5 °C 42.8 °F /  6 °C 29.6in /  1001.0hPa West 11mph /  17.7km/h 12mph /  19.3km/h 79% 0in /  0.0mm 0 W/m2
02:14 49.3 °F /  9.6 °C 43 °F /  6.1 °C 29.6in /  1001.0hPa WSW 15mph /  24.1km/h 15mph /  24.1km/h 79% 0in /  0.0mm 0 W/m2
02:19 49.3 °F /  9.6 °C 42.8 °F /  6 °C 29.6in /  1001.0hPa WNW 6.9mph /  11.1km/h 11mph /  17.7km/h 78% 0in /  0.0mm 0 W/m2
02:24 49.3 °F /  9.6 °C 42.4 °F /  5.8 °C 29.6in /  1001.0hPa West 6.9mph /  11.1km/h 9mph /  14.5km/h 77% 0in /  0.0mm 0 W/m2
02:29 49.3 °F /  9.6 °C 42.4 °F /  5.8 °C 29.6in /  1001.0hPa West 4mph /  6.4km/h 10mph /  16.1km/h 77% 0in /  0.0mm 0 W/m2
02:34 49.3 °F /  9.6 °C 42.1 °F /  5.6 °C 29.6in /  1000.7hPa WNW 13mph /  20.9km/h 16mph /  25.7km/h 76% 0in /  0.0mm 0 W/m2
02:39 49.3 °F /  9.6 °C 41.7 °F /  5.4 °C 29.6in /  1001.0hPa NW 8.1mph /  13km/h 14mph /  22.5km/h 75% 0in /  0.0mm 0 W/m2
02:44 49.5 °F /  9.7 °C 41.5 °F /  5.3 °C 29.6in /  1001.0hPa WNW 8.1mph /  13km/h 12mph /  19.3km/h 74% 0in /  0.0mm 0 W/m2
02:49 49.5 °F /  9.7 °C 41.5 °F /  5.3 °C 29.6in /  1001.0hPa WNW 13mph /  20.9km/h 14mph /  22.5km/h 74% 0in /  0.0mm 0 W/m2
02:54 49.6 °F /  9.8 °C 41 °F /  5 °C 29.6in /  1001.0hPa West 6mph /  9.7km/h 12mph /  19.3km/h 72% 0in /  0.0mm 0 W/m2
02:59 49.6 °F /  9.8 °C 41 °F /  5 °C 29.6in /  1001.0hPa WNW 6.9mph /  11.1km/h 9mph /  14.5km/h 72% 0in /  0.0mm 0 W/m2
03:04 49.6 °F /  9.8 °C 41 °F /  5 °C 29.6in /  1001.0hPa WNW 13mph /  20.9km/h 13mph /  20.9km/h 72% 0in /  0.0mm 0 W/m2
03:09 49.6 °F /  9.8 °C 41 °F /  5 °C 29.6in /  1000.7hPa WNW 6.9mph /  11.1km/h 17mph /  27.4km/h 72% 0in /  0.0mm 0 W/m2
03:14 49.6 °F /  9.8 °C 41 °F /  5 °C 29.6in /  1000.7hPa NNW 2mph /  3.2km/h 13mph /  20.9km/h 72% 0in /  0.0mm 0 W/m2
03:19 49.6 °F /  9.8 °C 41 °F /  5 °C 29.6in /  1000.7hPa WNW 4mph /  6.4km/h 17mph /  27.4km/h 72% 0in /  0.0mm 0 W/m2
03:24 49.6 °F /  9.8 °C 41 °F /  5 °C 29.6in /  1000.7hPa WSW 8.9mph /  14.3km/h 13mph /  20.9km/h 72% 0in /  0.0mm 0 W/m2
03:29 49.6 °F /  9.8 °C 40.6 °F /  4.8 °C 29.5in /  1000.3hPa WNW 2mph /  3.2km/h 12mph /  19.3km/h 71% 0in /  0.0mm 0 W/m2
03:34 49.6 °F /  9.8 °C 41 °F /  5 °C 29.6in /  1000.7hPa WNW 4mph /  6.4km/h 13mph /  20.9km/h 72% 0in /  0.0mm 0 W/m2
03:39 49.6 °F /  9.8 °C 41 °F /  5 °C 29.6in /  1000.7hPa South 4.9mph /  7.9km/h 11mph /  17.7km/h 72% 0in /  0.0mm 0 W/m2
03:44 49.6 °F /  9.8 °C 41 °F /  5 °C 29.5in /  1000.3hPa SW 4mph /  6.4km/h 9mph /  14.5km/h 72% 0in /  0.0mm 0 W/m2
03:49 49.6 °F /  9.8 °C 41 °F /  5 °C 29.5in /  1000.3hPa West 6.9mph /  11.1km/h 12mph /  19.3km/h 72% 0in /  0.0mm 0 W/m2
03:54 49.5 °F /  9.7 °C 40.8 °F /  4.9 °C 29.5in /  1000.3hPa West 10.1mph /  16.3km/h 13mph /  20.9km/h 72% 0in /  0.0mm 0 W/m2
03:59 49.5 °F /  9.7 °C 41.2 °F /  5.1 °C 29.5in /  1000.3hPa West 2.9mph /  4.7km/h 10mph /  16.1km/h 73% 0in /  0.0mm 0 W/m2
04:04 49.5 °F /  9.7 °C 41.2 °F /  5.1 °C 29.5in /  1000.3hPa West 6mph /  9.7km/h 16mph /  25.7km/h 73% 0in /  0.0mm 0 W/m2
04:09 49.5 °F /  9.7 °C 41.2 °F /  5.1 °C 29.5in /  1000.3hPa WNW 4mph /  6.4km/h 12mph /  19.3km/h 73% 0in /  0.0mm 0 W/m2
04:14 49.3 °F /  9.6 °C 41 °F /  5 °C 29.5in /  1000.3hPa North 10.1mph /  16.3km/h 18mph /  29km/h 73% 0in /  0.0mm 0 W/m2
04:19 49.3 °F /  9.6 °C 41.4 °F /  5.2 °C 29.5in /  1000.3hPa WSW 4mph /  6.4km/h 9mph /  14.5km/h 74% 0in /  0.0mm 0 W/m2
04:24 49.3 °F /  9.6 °C 41.4 °F /  5.2 °C 29.5in /  1000.3hPa SW 6.9mph /  11.1km/h 18mph /  29km/h 74% 0in /  0.0mm 0 W/m2
04:29 49.1 °F /  9.5 °C 41.5 °F /  5.3 °C 29.5in /  1000.0hPa WNW 6.9mph /  11.1km/h 14mph /  22.5km/h 75% 0in /  0.0mm 0 W/m2
04:34 48.9 °F /  9.4 °C 41.4 °F /  5.2 °C 29.5in /  1000.0hPa WSW 11mph /  17.7km/h 11mph /  17.7km/h 75% 0in /  0.0mm 0 W/m2
04:39 48.9 °F /  9.4 °C 41.7 °F /  5.4 °C 29.5in /  1000.0hPa NW 4mph /  6.4km/h 15mph /  24.1km/h 76% 0in /  0.0mm 0 W/m2
04:44 48.7 °F /  9.3 °C 41.9 °F /  5.5 °C 29.5in /  1000.3hPa WSW 4.9mph /  7.9km/h 12mph /  19.3km/h 77% 0in /  0.0mm 0 W/m2
04:49 48.6 °F /  9.2 °C 42.1 °F /  5.6 °C 29.5in /  1000.0hPa WSW 8.9mph /  14.3km/h 20mph /  32.2km/h 78% 0in /  0.0mm 0 W/m2
04:54 48.2 °F /  9 °C 42.3 °F /  5.7 °C 29.5in /  1000.0hPa WNW 4.9mph /  7.9km/h 16mph /  25.7km/h 80% 0in /  0.0mm 0 W/m2
04:59 47.8 °F /  8.8 °C 42.6 °F /  5.9 °C 29.5in /  1000.0hPa West 8.1mph /  13km/h 20mph /  32.2km/h 82% 0in /  0.0mm 0 W/m2
05:04 47.7 °F /  8.7 °C 42.8 °F /  6 °C 29.5in /  1000.0hPa West 4mph /  6.4km/h 17mph /  27.4km/h 83% 0in /  0.0mm 0 W/m2
05:09 47.5 °F /  8.6 °C 42.6 °F /  5.9 °C 29.5in /  1000.0hPa WSW 4.9mph /  7.9km/h 12mph /  19.3km/h 83% 0in /  0.0mm 0 W/m2
05:14 47.5 °F /  8.6 °C 42.8 °F /  6 °C 29.5in /  999.7hPa West 6mph /  9.7km/h 17mph /  27.4km/h 84% 0in /  0.0mm 0 W/m2
05:19 47.5 °F /  8.6 °C 42.8 °F /  6 °C 29.5in /  999.7hPa SW 6mph /  9.7km/h 13mph /  20.9km/h 84% 0in /  0.0mm 0 W/m2
05:24 47.5 °F /  8.6 °C 42.8 °F /  6 °C 29.5in /  999.7hPa WNW 11mph /  17.7km/h 14mph /  22.5km/h 84% 0in /  0.0mm 0 W/m2
05:30 47.7 °F /  8.7 °C 42.8 °F /  6 °C 29.5in /  999.7hPa WNW 10.1mph /  16.3km/h 12mph /  19.3km/h 83% 0in /  0.0mm 0 W/m2
05:35 47.7 °F /  8.7 °C 42.8 °F /  6 °C 29.5in /  999.7hPa WSW 12.1mph /  19.5km/h 17mph /  27.4km/h 83% 0in /  0.0mm 0 W/m2
05:40 47.7 °F /  8.7 °C 43 °F /  6.1 °C 29.5in /  999.7hPa WSW 14.1mph /  22.7km/h 14mph /  22.5km/h 84% 0in /  0.0mm 0 W/m2
05:45 47.8 °F /  8.8 °C 43.2 °F /  6.2 °C 29.5in /  999.3hPa WSW 4mph /  6.4km/h 18mph /  29km/h 84% 0in /  0.0mm 0 W/m2
05:50 47.8 °F /  8.8 °C 43 °F /  6.1 °C 29.5in /  999.7hPa WSW 12.1mph /  19.5km/h 14mph /  22.5km/h 83% 0in /  0.0mm 0 W/m2
05:55 47.8 °F /  8.8 °C 43 °F /  6.1 °C 29.5in /  999.7hPa NW 6.9mph /  11.1km/h 12mph /  19.3km/h 83% 0in /  0.0mm 0 W/m2
06:00 47.8 °F /  8.8 °C 43 °F /  6.1 °C 29.5in /  999.7hPa NW 4mph /  6.4km/h 12mph /  19.3km/h 83% 0in /  0.0mm 0 W/m2
06:05 47.8 °F /  8.8 °C 43 °F /  6.1 °C 29.5in /  999.7hPa NW 4.9mph /  7.9km/h 13mph /  20.9km/h 83% 0in /  0.0mm 0 W/m2
06:10 48 °F /  8.9 °C 43.2 °F /  6.2 °C 29.5in /  999.7hPa WNW 2.9mph /  4.7km/h 15mph /  24.1km/h 83% 0in /  0.0mm 0 W/m2
06:15 48 °F /  8.9 °C 43.2 °F /  6.2 °C 29.5in /  999.3hPa WNW 8.9mph /  14.3km/h 9mph /  14.5km/h 83% 0in /  0.0mm 0 W/m2
06:20 48.2 °F /  9 °C 43 °F /  6.1 °C 29.5in /  999.3hPa WNW 8.9mph /  14.3km/h 14mph /  22.5km/h 82% 0in /  0.0mm 0 W/m2
06:25 48.4 °F /  9.1 °C 43.2 °F /  6.2 °C 29.5in /  999.3hPa West 10.1mph /  16.3km/h 12mph /  19.3km/h 82% 0in /  0.0mm 0 W/m2
06:30 48.4 °F /  9.1 °C 43.2 °F /  6.2 °C 29.5in /  999.3hPa West 6mph /  9.7km/h 15mph /  24.1km/h 82% 0in /  0.0mm 0 W/m2
06:35 48.4 °F /  9.1 °C 43.2 °F /  6.2 °C 29.5in /  999.3hPa NNW 10.1mph /  16.3km/h 13mph /  20.9km/h 82% 0in /  0.0mm 0 W/m2
06:40 48.2 °F /  9 °C 43.3 °F /  6.3 °C 29.5in /  999.3hPa NW 2.9mph /  4.7km/h 12mph /  19.3km/h 83% 0in /  0.0mm 0 W/m2
06:45 48 °F /  8.9 °C 43.2 °F /  6.2 °C 29.5in /  999.3hPa West 8.1mph /  13km/h 16mph /  25.7km/h 83% 0in /  0.0mm 0 W/m2
06:50 48 °F /  8.9 °C 43.3 °F /  6.3 °C 29.5in /  999.3hPa SW 6mph /  9.7km/h 18mph /  29km/h 84% 0in /  0.0mm 0 W/m2
06:55 47.8 °F /  8.8 °C 43.2 °F /  6.2 °C 29.5in /  999.7hPa NW 8.9mph /  14.3km/h 14mph /  22.5km/h 84% 0in /  0.0mm 0 W/m2
07:00 47.8 °F /  8.8 °C 43.5 °F /  6.4 °C 29.5in /  999.3hPa WSW 8.1mph /  13km/h 18mph /  29km/h 85% 0.01in /  0.2mm 0 W/m2
07:05 47.8 °F /  8.8 °C 43.5 °F /  6.4 °C 29.5in /  999.7hPa WNW 4.9mph /  7.9km/h 14mph /  22.5km/h 85% 0.01in /  0.2mm 0 W/m2
07:10 47.8 °F /  8.8 °C 43.2 °F /  6.2 °C 29.5in /  999.7hPa WNW 4.9mph /  7.9km/h 17mph /  27.4km/h 84% 0.01in /  0.2mm 0 W/m2
07:15 48 °F /  8.9 °C 43.3 °F /  6.3 °C 29.5in /  999.3hPa West 10.1mph /  16.3km/h 15mph /  24.1km/h 84% 0.01in /  0.2mm 0 W/m2
07:20 48 °F /  8.9 °C 43.3 °F /  6.3 °C 29.5in /  999.7hPa WNW 2.9mph /  4.7km/h 14mph /  22.5km/h 84% 0.01in /  0.2mm 0 W/m2
07:25 48 °F /  8.9 °C 43.3 °F /  6.3 °C 29.5in /  999.7hPa WNW 8.9mph /  14.3km/h 12mph /  19.3km/h 84% 0.01in /  0.2mm 0 W/m2
07:30 48 °F /  8.9 °C 43.3 °F /  6.3 °C 29.5in /  999.7hPa West 8.9mph /  14.3km/h 15mph /  24.1km/h 84% 0.01in /  0.2mm 0 W/m2
07:35 48.2 °F /  9 °C 43.3 °F /  6.3 °C 29.5in /  999.7hPa West 11mph /  17.7km/h 17mph /  27.4km/h 83% 0.01in /  0.2mm 0 W/m2
07:40 48.4 °F /  9.1 °C 43.2 °F /  6.2 °C 29.5in /  999.7hPa WNW 8.1mph /  13km/h 13mph /  20.9km/h 82% 0.01in /  0.2mm 0 W/m2
07:45 48.6 °F /  9.2 °C 43.3 °F /  6.3 °C 29.5in /  999.7hPa WNW 8.9mph /  14.3km/h 15mph /  24.1km/h 82% 0.01in /  0.2mm 0 W/m2
07:50 48.4 °F /  9.1 °C 43.2 °F /  6.2 °C 29.5in /  999.7hPa West 8.9mph /  14.3km/h 16mph /  25.7km/h 82% 0.01in /  0.2mm 7 W/m2
07:55 48.4 °F /  9.1 °C 43.5 °F /  6.4 °C 29.5in /  999.7hPa West 8.1mph /  13km/h 14mph /  22.5km/h 83% 0.01in /  0.2mm 9 W/m2
08:00 48.2 °F /  9 °C 43.3 °F /  6.3 °C 29.5in /  999.7hPa WSW 12.1mph /  19.5km/h 15mph /  24.1km/h 83% 0in /  0.0mm 7 W/m2
08:05 48 °F /  8.9 °C 43.3 °F /  6.3 °C 29.5in /  999.7hPa WSW 10.1mph /  16.3km/h 14mph /  22.5km/h 84% 0in /  0.0mm 11 W/m2
08:10 48 °F /  8.9 °C 43.3 °F /  6.3 °C 29.5in /  999.7hPa West 8.1mph /  13km/h 11mph /  17.7km/h 84% 0in /  0.0mm 12 W/m2
08:15 48 °F /  8.9 °C 43.3 °F /  6.3 °C 29.5in /  999.7hPa West 8.1mph /  13km/h 13mph /  20.9km/h 84% 0in /  0.0mm 12 W/m2
08:20 48 °F /  8.9 °C 43.3 °F /  6.3 °C 29.5in /  999.7hPa WSW 8.9mph /  14.3km/h 14mph /  22.5km/h 84% 0in /  0.0mm 19 W/m2
08:25 47.8 °F /  8.8 °C 43.5 °F /  6.4 °C 29.5in /  999.7hPa SW 11mph /  17.7km/h 18mph /  29km/h 85% 0in /  0.0mm 18 W/m2
08:30 47.8 °F /  8.8 °C 43.5 °F /  6.4 °C 29.5in /  999.7hPa WNW 10.1mph /  16.3km/h 19mph /  30.6km/h 85% 0in /  0.0mm 19 W/m2
08:35 47.7 °F /  8.7 °C 43.7 °F /  6.5 °C 29.5in /  999.7hPa NW 11mph /  17.7km/h 12mph /  19.3km/h 86% 0in /  0.0mm 21 W/m2
08:40 47.5 °F /  8.6 °C 43.9 °F /  6.6 °C 29.5in /  999.7hPa West 14.1mph /  22.7km/h 17mph /  27.4km/h 87% 0in /  0.0mm 26 W/m2
08:45 47.5 °F /  8.6 °C 43.9 °F /  6.6 °C 29.5in /  999.7hPa WNW 8.9mph /  14.3km/h 16mph /  25.7km/h 87% 0in /  0.0mm 28 W/m2
08:50 47.3 °F /  8.5 °C 43.9 °F /  6.6 °C 29.5in /  999.7hPa WSW 10.1mph /  16.3km/h 14mph /  22.5km/h 88% 0in /  0.0mm 26 W/m2
08:55 47.1 °F /  8.4 °C 43.7 °F /  6.5 °C 29.5in /  999.7hPa WSW 11mph /  17.7km/h 13mph /  20.9km/h 88% 0.01in /  0.2mm 46 W/m2
09:00 47.1 °F /  8.4 °C 44.1 °F /  6.7 °C 29.5in /  1000.0hPa WNW 14.1mph /  22.7km/h 15mph /  24.1km/h 89% 0.01in /  0.2mm 44 W/m2
09:05 46.9 °F /  8.3 °C 43.9 °F /  6.6 °C 29.5in /  999.7hPa West 11mph /  17.7km/h 21mph /  33.8km/h 89% 0.01in /  0.2mm 40 W/m2
09:10 46.9 °F /  8.3 °C 43.9 °F /  6.6 °C 29.5in /  999.7hPa West 11mph /  17.7km/h 13mph /  20.9km/h 89% 0.01in /  0.2mm 33 W/m2
09:15 46.8 °F /  8.2 °C 44.1 °F /  6.7 °C 29.5in /  999.7hPa NNW 6mph /  9.7km/h 17mph /  27.4km/h 90% 0.01in /  0.2mm 23 W/m2
09:20 46.8 °F /  8.2 °C 44.1 °F /  6.7 °C 29.5in /  1000.0hPa WSW 4mph /  6.4km/h 14mph /  22.5km/h 90% 0.01in /  0.2mm 33 W/m2
09:25 46.8 °F /  8.2 °C 44.1 °F /  6.7 °C 29.5in /  1000.0hPa WNW 13mph /  20.9km/h 17mph /  27.4km/h 90% 0.01in /  0.2mm 51 W/m2
09:30 46.9 °F /  8.3 °C 43.9 °F /  6.6 °C 29.5in /  1000.0hPa WSW 4.9mph /  7.9km/h 15mph /  24.1km/h 89% 0.01in /  0.2mm 46 W/m2
09:35 46.9 °F /  8.3 °C 43.9 °F /  6.6 °C 29.5in /  1000.0hPa West 10.1mph /  16.3km/h 15mph /  24.1km/h 89% 0.01in /  0.2mm 128 W/m2
09:40 47.1 °F /  8.4 °C 44.1 °F /  6.7 °C 29.5in /  999.7hPa WNW 4.9mph /  7.9km/h 19mph /  30.6km/h 89% 0.01in /  0.2mm 144 W/m2
09:45 47.1 °F /  8.4 °C 44.4 °F /  6.9 °C 29.5in /  1000.0hPa WNW 10.1mph /  16.3km/h 20mph /  32.2km/h 90% 0.01in /  0.2mm 134 W/m2
09:50 47.1 °F /  8.4 °C 44.4 °F /  6.9 °C 29.5in /  1000.0hPa West 11mph /  17.7km/h 15mph /  24.1km/h 90% 0.01in /  0.2mm 167 W/m2
09:55 47.1 °F /  8.4 °C 44.4 °F /  6.9 °C 29.5in /  1000.0hPa WNW 12.1mph /  19.5km/h 20mph /  32.2km/h 90% 0in /  0.0mm 142 W/m2
10:00 47.1 °F /  8.4 °C 44.4 °F /  6.9 °C 29.5in /  1000.0hPa WNW 4.9mph /  7.9km/h 13mph /  20.9km/h 90% 0in /  0.0mm 172 W/m2
10:05 47.1 °F /  8.4 °C 44.4 °F /  6.9 °C 29.5in /  1000.0hPa West 6mph /  9.7km/h 18mph /  29km/h 90% 0in /  0.0mm 155 W/m2
10:10 47.1 °F /  8.4 °C 44.4 °F /  6.9 °C 29.5in /  1000.0hPa West 8.9mph /  14.3km/h 17mph /  27.4km/h 90% 0in /  0.0mm 121 W/m2
10:15 47.1 °F /  8.4 °C 44.4 °F /  6.9 °C 29.5in /  1000.0hPa West 6.9mph /  11.1km/h 11mph /  17.7km/h 90% 0in /  0.0mm 153 W/m2
10:20 47.1 °F /  8.4 °C 44.6 °F /  7 °C 29.5in /  1000.0hPa West 10.1mph /  16.3km/h 15mph /  24.1km/h 91% 0.01in /  0.2mm 167 W/m2
10:25 47.3 °F /  8.5 °C 44.8 °F /  7.1 °C 29.5in /  1000.0hPa West 6mph /  9.7km/h 14mph /  22.5km/h 91% 0.01in /  0.2mm 193 W/m2
10:30 47.5 °F /  8.6 °C 45 °F /  7.2 °C 29.5in /  1000.0hPa WSW 6.9mph /  11.1km/h 14mph /  22.5km/h 91% 0.01in /  0.2mm 174 W/m2
10:35 47.5 °F /  8.6 °C 44.8 °F /  7.1 °C 29.5in /  1000.0hPa West 6mph /  9.7km/h 20mph /  32.2km/h 90% 0.01in /  0.2mm 98 W/m2
10:40 47.5 °F /  8.6 °C 44.8 °F /  7.1 °C 29.5in /  1000.0hPa West 13mph /  20.9km/h 14mph /  22.5km/h 90% 0.01in /  0.2mm 47 W/m2
10:45 47.5 °F /  8.6 °C 44.4 °F /  6.9 °C 29.5in /  1000.0hPa WSW 16.1mph /  25.9km/h 20mph /  32.2km/h 89% 0.01in /  0.2mm 193 W/m2
10:50 47.7 °F /  8.7 °C 44.6 °F /  7 °C 29.5in /  1000.0hPa WSW 15mph /  24.1km/h 19mph /  30.6km/h 89% 0.01in /  0.2mm 193 W/m2
10:55 47.8 °F /  8.8 °C 44.8 °F /  7.1 °C 29.5in /  1000.0hPa WSW 8.9mph /  14.3km/h 11mph /  17.7km/h 89% 0.01in /  0.2mm 185 W/m2
11:00 47.8 °F /  8.8 °C 44.4 °F /  6.9 °C 29.5in /  1000.0hPa West 6mph /  9.7km/h 19mph /  30.6km/h 88% 0.01in /  0.2mm 153 W/m2
11:05 48 °F /  8.9 °C 45 °F /  7.2 °C 29.5in /  1000.0hPa WSW 16.1mph /  25.9km/h 16mph /  25.7km/h 89% 0.01in /  0.2mm 174 W/m2
11:10 48 °F /  8.9 °C 44.6 °F /  7 °C 29.5in /  1000.0hPa West 15mph /  24.1km/h 15mph /  24.1km/h 88% 0.01in /  0.2mm 255 W/m2
11:15 48.4 °F /  9.1 °C 44.8 °F /  7.1 °C 29.5in /  1000.3hPa NW 13mph /  20.9km/h 21mph /  33.8km/h 87% 0.01in /  0.2mm 276 W/m2
11:20 48.7 °F /  9.3 °C 45.3 °F /  7.4 °C 29.5in /  1000.0hPa West 8.1mph /  13km/h 13mph /  20.9km/h 88% 0in /  0.0mm 258 W/m2
11:25 48.9 °F /  9.4 °C 45 °F /  7.2 °C 29.5in /  1000.0hPa West 6.9mph /  11.1km/h 23mph /  37km/h 86% 0in /  0.0mm 297 W/m2
11:30 49.1 °F /  9.5 °C 45.1 °F /  7.3 °C 29.5in /  1000.0hPa West 6mph /  9.7km/h 16mph /  25.7km/h 86% 0in /  0.0mm 325 W/m2
11:35 49.3 °F /  9.6 °C 45.3 °F /  7.4 °C 29.5in /  1000.0hPa WNW 8.1mph /  13km/h 19mph /  30.6km/h 86% 0in /  0.0mm 206 W/m2
11:40 49.3 °F /  9.6 °C 45.3 °F /  7.4 °C 29.5in /  1000.0hPa WNW 15mph /  24.1km/h 17mph /  27.4km/h 86% 0in /  0.0mm 257 W/m2
11:45 49.5 °F /  9.7 °C 45.5 °F /  7.5 °C 29.5in /  1000.0hPa WNW 16.1mph /  25.9km/h 21mph /  33.8km/h 86% 0in /  0.0mm 731 W/m2
11:50 50.2 °F /  10.1 °C 46.2 °F /  7.9 °C 29.5in /  1000.0hPa West 15mph /  24.1km/h 17mph /  27.4km/h 86% 0in /  0.0mm 656 W/m2
11:55 50 °F /  10 °C 45.7 °F /  7.6 °C 29.5in /  999.7hPa WNW 12.1mph /  19.5km/h 20mph /  32.2km/h 85% 0in /  0.0mm 548 W/m2
12:00 50.2 °F /  10.1 °C 45.9 °F /  7.7 °C 29.5in /  999.7hPa West 10.1mph /  16.3km/h 23mph /  37km/h 85% 0in /  0.0mm 309 W/m2
12:05 50.2 °F /  10.1 °C 45.9 °F /  7.7 °C 29.5in /  1000.3hPa West 16.1mph /  25.9km/h 17mph /  27.4km/h 85% 0in /  0.0mm 513 W/m2
12:10 50.2 °F /  10.1 °C 45.9 °F /  7.7 °C 29.5in /  999.7hPa NW 11mph /  17.7km/h 23mph /  37km/h 85% 0in /  0.0mm 513 W/m2
12:15 50.5 °F /  10.3 °C 46.2 °F /  7.9 °C 29.5in /  999.7hPa NW 8.1mph /  13km/h 15mph /  24.1km/h 85% 0in /  0.0mm 513 W/m2
12:20 50.7 °F /  10.4 °C 45.7 °F /  7.6 °C 29.5in /  999.7hPa WSW 14.1mph /  22.7km/h 15mph /  24.1km/h 83% 0in /  0.0mm 513 W/m2
12:25 51.1 °F /  10.6 °C 45.9 °F /  7.7 °C 29.5in /  1000.0hPa WSW 10.1mph /  16.3km/h 22mph /  35.4km/h 82% 0in /  0.0mm 578 W/m2
12:30 51.1 °F /  10.6 °C 45.9 °F /  7.7 °C 29.5in /  1000.0hPa WNW 11mph /  17.7km/h 19mph /  30.6km/h 82% 0in /  0.0mm 668 W/m2
12:35 51.1 °F /  10.6 °C 45.9 °F /  7.7 °C 29.5in /  1000.0hPa WNW 8.9mph /  14.3km/h 22mph /  35.4km/h 82% 0in /  0.0mm 410 W/m2
12:40 50.9 °F /  10.5 °C 45.7 °F /  7.6 °C 29.5in /  1000.0hPa WSW 10.1mph /  16.3km/h 17mph /  27.4km/h 82% 0in /  0.0mm 378 W/m2
12:45 50.9 °F /  10.5 °C 45.7 °F /  7.6 °C 29.5in /  1000.0hPa WSW 13mph /  20.9km/h 20mph /  32.2km/h 82% 0in /  0.0mm 499 W/m2
12:50 50.9 °F /  10.5 °C 45.7 °F /  7.6 °C 29.5in /  1000.0hPa WNW 10.1mph /  16.3km/h 18mph /  29km/h 82% 0in /  0.0mm 561 W/m2
12:55 51.1 °F /  10.6 °C 45.9 °F /  7.7 °C 29.5in /  1000.3hPa West 11mph /  17.7km/h 15mph /  24.1km/h 82% 0in /  0.0mm 236 W/m2
13:00 50.7 °F /  10.4 °C 45.5 °F /  7.5 °C 29.5in /  1000.3hPa WNW 14.1mph /  22.7km/h 21mph /  33.8km/h 82% 0in /  0.0mm 237 W/m2
13:05 50.7 °F /  10.4 °C 45.7 °F /  7.6 °C 29.5in /  1000.3hPa West 14.1mph /  22.7km/h 14mph /  22.5km/h 83% 0in /  0.0mm 214 W/m2
13:10 50.5 °F /  10.3 °C 45.5 °F /  7.5 °C 29.5in /  1000.3hPa SW 6.9mph /  11.1km/h 11mph /  17.7km/h 83% 0in /  0.0mm 188 W/m2
13:15 50.4 °F /  10.2 °C 45.7 °F /  7.6 °C 29.5in /  1000.3hPa WNW 12.1mph /  19.5km/h 16mph /  25.7km/h 84% 0in /  0.0mm 369 W/m2
13:20 50.5 °F /  10.3 °C 46.2 °F /  7.9 °C 29.5in /  1000.3hPa West 8.1mph /  13km/h 11mph /  17.7km/h 85% 0in /  0.0mm 369 W/m2
13:25 50.7 °F /  10.4 °C 45.7 °F /  7.6 °C 29.5in /  1000.3hPa West 10.1mph /  16.3km/h 17mph /  27.4km/h 83% 0in /  0.0mm 193 W/m2
13:30 50.7 °F /  10.4 °C 45.7 °F /  7.6 °C 29.5in /  1000.3hPa NNW 6mph /  9.7km/h 13mph /  20.9km/h 83% 0in /  0.0mm 227 W/m2
13:35 50.5 °F /  10.3 °C 45.5 °F /  7.5 °C 29.5in /  1000.3hPa SW 15mph /  24.1km/h 21mph /  33.8km/h 83% 0in /  0.0mm 223 W/m2
13:40 50.5 °F /  10.3 °C 45.5 °F /  7.5 °C 29.5in /  1000.3hPa West 8.9mph /  14.3km/h 15mph /  24.1km/h 83% 0in /  0.0mm 181 W/m2
13:45 50.5 °F /  10.3 °C 45.5 °F /  7.5 °C 29.5in /  1000.3hPa WSW 13mph /  20.9km/h 21mph /  33.8km/h 83% 0in /  0.0mm 160 W/m2
13:50 50.4 °F /  10.2 °C 45.3 °F /  7.4 °C 29.6in /  1000.7hPa WNW 6.9mph /  11.1km/h 14mph /  22.5km/h 83% 0in /  0.0mm 137 W/m2
13:55 50.4 °F /  10.2 °C 45.3 °F /  7.4 °C 29.6in /  1000.7hPa WNW 8.9mph /  14.3km/h 20mph /  32.2km/h 83% 0in /  0.0mm 84 W/m2
14:00 50.2 °F /  10.1 °C 45.1 °F /  7.3 °C 29.6in /  1000.7hPa WNW 4.9mph /  7.9km/h 17mph /  27.4km/h 83% 0in /  0.0mm 102 W/m2
14:05 50 °F /  10 °C 45 °F /  7.2 °C 29.6in /  1000.7hPa West 6.9mph /  11.1km/h 10mph /  16.1km/h 83% 0in /  0.0mm 95 W/m2
14:10 50.2 °F /  10.1 °C 45.1 °F /  7.3 °C 29.6in /  1000.7hPa WSW 8.9mph /  14.3km/h 20mph /  32.2km/h 83% 0in /  0.0mm 214 W/m2
14:15 50.5 °F /  10.3 °C 45.5 °F /  7.5 °C 29.6in /  1000.7hPa West 6.9mph /  11.1km/h 12mph /  19.3km/h 83% 0in /  0.0mm 248 W/m2
14:20 50.7 °F /  10.4 °C 45.5 °F /  7.5 °C 29.6in /  1000.7hPa West 17mph /  27.4km/h 19mph /  30.6km/h 82% 0in /  0.0mm 193 W/m2
14:25 50.9 °F /  10.5 °C 45.7 °F /  7.6 °C 29.6in /  1000.7hPa WSW 8.1mph /  13km/h 15mph /  24.1km/h 82% 0in /  0.0mm 315 W/m2
14:30 51.3 °F /  10.7 °C 46 °F /  7.8 °C 29.5in /  1000.3hPa WNW 2.9mph /  4.7km/h 11mph /  17.7km/h 82% 0in /  0.0mm 635 W/m2
14:35 52 °F /  11.1 °C 46.4 °F /  8 °C 29.5in /  1000.3hPa WSW 12.1mph /  19.5km/h 15mph /  24.1km/h 81% 0in /  0.0mm 652 W/m2
14:40 52.3 °F /  11.3 °C 46 °F /  7.8 °C 29.6in /  1000.7hPa West 8.1mph /  13km/h 21mph /  33.8km/h 79% 0in /  0.0mm 652 W/m2
14:45 52.3 °F /  11.3 °C 46 °F /  7.8 °C 29.6in /  1000.7hPa WNW 14.1mph /  22.7km/h 15mph /  24.1km/h 79% 0in /  0.0mm 278 W/m2
14:50 52.2 °F /  11.2 °C 45.9 °F /  7.7 °C 29.6in /  1000.7hPa NW 10.1mph /  16.3km/h 21mph /  33.8km/h 79% 0in /  0.0mm 264 W/m2
14:55 52.3 °F /  11.3 °C 46 °F /  7.8 °C 29.6in /  1000.7hPa West 15mph /  24.1km/h 17mph /  27.4km/h 79% 0in /  0.0mm 504 W/m2
15:00 52.5 °F /  11.4 °C 45.9 °F /  7.7 °C 29.6in /  1000.7hPa WSW 8.9mph /  14.3km/h 20mph /  32.2km/h 78% 0in /  0.0mm 622 W/m2
15:05 52.5 °F /  11.4 °C 45.5 °F /  7.5 °C 29.6in /  1000.7hPa West 15mph /  24.1km/h 19mph /  30.6km/h 77% 0in /  0.0mm 656 W/m2
15:10 52.3 °F /  11.3 °C 45 °F /  7.2 °C 29.6in /  1000.7hPa NW 8.1mph /  13km/h 24mph /  38.6km/h 76% 0in /  0.0mm 236 W/m2
15:15 52.5 °F /  11.4 °C 45.5 °F /  7.5 °C 29.6in /  1000.7hPa WNW 12.1mph /  19.5km/h 15mph /  24.1km/h 77% 0in /  0.0mm 647 W/m2
15:20 52.9 °F /  11.6 °C 45.9 °F /  7.7 °C 29.6in /  1000.7hPa NW 2mph /  3.2km/h 24mph /  38.6km/h 77% 0in /  0.0mm 253 W/m2
15:25 52.2 °F /  11.2 °C 45.1 °F /  7.3 °C 29.6in /  1000.7hPa West 8.1mph /  13km/h 15mph /  24.1km/h 77% 0in /  0.0mm 130 W/m2
15:30 52 °F /  11.1 °C 45.7 °F /  7.6 °C 29.5in /  1000.3hPa WNW 10.1mph /  16.3km/h 14mph /  22.5km/h 79% 0in /  0.0mm 281 W/m2
15:35 52 °F /  11.1 °C 45.7 °F /  7.6 °C 29.5in /  1000.3hPa NW 8.1mph /  13km/h 10mph /  16.1km/h 79% 0in /  0.0mm 248 W/m2
15:40 52.3 °F /  11.3 °C 46.4 °F /  8 °C 29.5in /  1000.3hPa West 8.1mph /  13km/h 13mph /  20.9km/h 80% 0in /  0.0mm 272 W/m2
15:45 52 °F /  11.1 °C 46.4 °F /  8 °C 29.5in /  1000.3hPa West 10.1mph /  16.3km/h 14mph /  22.5km/h 81% 0in /  0.0mm 167 W/m2
15:50 51.6 °F /  10.9 °C 46.2 °F /  7.9 °C 29.5in /  1000.3hPa West 14.1mph /  22.7km/h 19mph /  30.6km/h 82% 0in /  0.0mm 183 W/m2
15:55 51.3 °F /  10.7 °C 46.2 °F /  7.9 °C 29.6in /  1000.7hPa West 8.9mph /  14.3km/h 18mph /  29km/h 83% 0in /  0.0mm 192 W/m2
16:00 50.7 °F /  10.4 °C 46.4 °F /  8 °C 29.6in /  1000.7hPa West 10.1mph /  16.3km/h 18mph /  29km/h 85% 0in /  0.0mm 72 W/m2
16:05 50.4 °F /  10.2 °C 46.4 °F /  8 °C 29.6in /  1000.7hPa WSW 4.9mph /  7.9km/h 18mph /  29km/h 86% 0in /  0.0mm 70 W/m2
16:10 50 °F /  10 °C 46.2 °F /  7.9 °C 29.6in /  1000.7hPa WNW 6.9mph /  11.1km/h 14mph /  22.5km/h 87% 0in /  0.0mm 104 W/m2
16:15 49.8 °F /  9.9 °C 46.4 °F /  8 °C 29.6in /  1000.7hPa NW 8.9mph /  14.3km/h 14mph /  22.5km/h 88% 0in /  0.0mm 171 W/m2
16:20 49.8 °F /  9.9 °C 46.8 °F /  8.2 °C 29.6in /  1001.0hPa WNW 11mph /  17.7km/h 11mph /  17.7km/h 89% 0in /  0.0mm 251 W/m2
16:25 49.8 °F /  9.9 °C 46.8 °F /  8.2 °C 29.6in /  1001.0hPa NW 4.9mph /  7.9km/h 15mph /  24.1km/h 89% 0in /  0.0mm 214 W/m2
16:30 50.2 °F /  10.1 °C 47.1 °F /  8.4 °C 29.6in /  1001.0hPa WSW 8.9mph /  14.3km/h 15mph /  24.1km/h 89% 0in /  0.0mm 142 W/m2
16:35 50.2 °F /  10.1 °C 46.8 °F /  8.2 °C 29.6in /  1001.0hPa WNW 8.9mph /  14.3km/h 14mph /  22.5km/h 88% 0in /  0.0mm 113 W/m2
16:40 50.2 °F /  10.1 °C 46.4 °F /  8 °C 29.6in /  1001.0hPa West 8.9mph /  14.3km/h 15mph /  24.1km/h 87% 0in /  0.0mm 84 W/m2
16:45 50.4 °F /  10.2 °C 46.4 °F /  8 °C 29.6in /  1001.0hPa West 6mph /  9.7km/h 12mph /  19.3km/h 86% 0in /  0.0mm 81 W/m2
16:50 50.4 °F /  10.2 °C 46.4 °F /  8 °C 29.6in /  1001.0hPa WNW 4mph /  6.4km/h 9mph /  14.5km/h 86% 0in /  0.0mm 84 W/m2
16:55 50.4 °F /  10.2 °C 46.4 °F /  8 °C 29.6in /  1001.0hPa NNW 4.9mph /  7.9km/h 14mph /  22.5km/h 86% 0in /  0.0mm 118 W/m2
17:00 50.2 °F /  10.1 °C 46.4 °F /  8 °C 29.6in /  1001.0hPa WSW 4mph /  6.4km/h 19mph /  30.6km/h 87% 0in /  0.0mm 84 W/m2
17:05 49.8 °F /  9.9 °C 46.4 °F /  8 °C 29.6in /  1001.0hPa WSW 4.9mph /  7.9km/h 13mph /  20.9km/h 88% 0in /  0.0mm 74 W/m2
17:10 49.8 °F /  9.9 °C 46.4 °F /  8 °C 29.6in /  1001.4hPa WNW 4mph /  6.4km/h 10mph /  16.1km/h 88% 0in /  0.0mm 53 W/m2
17:15 49.8 °F /  9.9 °C 46.4 °F /  8 °C 29.6in /  1001.0hPa WSW 4.9mph /  7.9km/h 10mph /  16.1km/h 88% 0in /  0.0mm 77 W/m2
17:20 49.8 °F /  9.9 °C 46.4 °F /  8 °C 29.6in /  1001.4hPa West 6mph /  9.7km/h 12mph /  19.3km/h 88% 0in /  0.0mm 70 W/m2
17:25 49.8 °F /  9.9 °C 46 °F /  7.8 °C 29.6in /  1001.0hPa West 6mph /  9.7km/h 10mph /  16.1km/h 87% 0in /  0.0mm 76 W/m2
17:30 50 °F /  10 °C 46.2 °F /  7.9 °C 29.6in /  1001.0hPa West 6mph /  9.7km/h 11mph /  17.7km/h 87% 0in /  0.0mm 74 W/m2
17:35 50.2 °F /  10.1 °C 46.4 °F /  8 °C 29.6in /  1001.4hPa WNW 10.1mph /  16.3km/h 10mph /  16.1km/h 87% 0in /  0.0mm 54 W/m2
17:40 50.4 °F /  10.2 °C 46.4 °F /  8 °C 29.6in /  1001.4hPa WNW 6.9mph /  11.1km/h 15mph /  24.1km/h 86% 0in /  0.0mm 63 W/m2
17:45 50.2 °F /  10.1 °C 46.4 °F /  8 °C 29.6in /  1001.4hPa NW 10.1mph /  16.3km/h 15mph /  24.1km/h 87% 0in /  0.0mm 54 W/m2
17:50 50.2 °F /  10.1 °C 46.4 °F /  8 °C 29.6in /  1001.4hPa West 4mph /  6.4km/h 12mph /  19.3km/h 87% 0in /  0.0mm 37 W/m2
17:55 49.8 °F /  9.9 °C 46.4 °F /  8 °C 29.6in /  1001.4hPa West 6mph /  9.7km/h 12mph /  19.3km/h 88% 0in /  0.0mm 40 W/m2
18:00 49.6 °F /  9.8 °C 46.6 °F /  8.1 °C 29.6in /  1001.0hPa West 4mph /  6.4km/h 8mph /  12.9km/h 89% 0in /  0.0mm 40 W/m2
18:05 49.5 °F /  9.7 °C 46.6 °F /  8.1 °C 29.6in /  1001.0hPa West 4mph /  6.4km/h 12mph /  19.3km/h 90% 0in /  0.0mm 65 W/m2
18:10 49.5 °F /  9.7 °C 46.6 °F /  8.1 °C 29.6in /  1001.0hPa West 6mph /  9.7km/h 10mph /  16.1km/h 90% 0in /  0.0mm 70 W/m2
18:15 49.5 °F /  9.7 °C 46.6 °F /  8.1 °C 29.6in /  1001.0hPa West 4mph /  6.4km/h 10mph /  16.1km/h 90% 0in /  0.0mm 63 W/m2
18:21 49.5 °F /  9.7 °C 46.6 °F /  8.1 °C 29.6in /  1001.0hPa WNW 6.9mph /  11.1km/h 13mph /  20.9km/h 90% 0in /  0.0mm 65 W/m2
18:26 49.5 °F /  9.7 °C 46.6 °F /  8.1 °C 29.6in /  1001.0hPa WSW 6.9mph /  11.1km/h 13mph /  20.9km/h 90% 0in /  0.0mm 54 W/m2
18:31 49.5 °F /  9.7 °C 46.4 °F /  8 °C 29.6in /  1001.0hPa WSW 8.9mph /  14.3km/h 13mph /  20.9km/h 89% 0in /  0.0mm 39 W/m2
18:36 49.6 °F /  9.8 °C 46.6 °F /  8.1 °C 29.6in /  1001.4hPa SW 6mph /  9.7km/h 14mph /  22.5km/h 89% 0in /  0.0mm 35 W/m2
18:41 49.5 °F /  9.7 °C 46.4 °F /  8 °C 29.6in /  1001.4hPa WSW 10.1mph /  16.3km/h 12mph /  19.3km/h 89% 0in /  0.0mm 42 W/m2
18:46 49.5 °F /  9.7 °C 46.4 °F /  8 °C 29.6in /  1001.4hPa West 8.9mph /  14.3km/h 12mph /  19.3km/h 89% 0in /  0.0mm 26 W/m2
18:51 49.5 °F /  9.7 °C 46.6 °F /  8.1 °C 29.6in /  1001.4hPa WSW 8.1mph /  13km/h 12mph /  19.3km/h 90% 0in /  0.0mm 26 W/m2
18:56 49.3 °F /  9.6 °C 46.4 °F /  8 °C 29.6in /  1001.4hPa WNW 8.1mph /  13km/h 8mph /  12.9km/h 90% 0in /  0.0mm 25 W/m2
19:01 49.3 °F /  9.6 °C 46.4 °F /  8 °C 29.6in /  1001.4hPa West 10.1mph /  16.3km/h 17mph /  27.4km/h 90% 0in /  0.0mm 19 W/m2
19:06 49.3 °F /  9.6 °C 46.4 °F /  8 °C 29.6in /  1001.4hPa WNW 6.9mph /  11.1km/h 14mph /  22.5km/h 90% 0in /  0.0mm 14 W/m2
19:11 49.3 °F /  9.6 °C 46.4 °F /  8 °C 29.6in /  1001.4hPa WNW 8.9mph /  14.3km/h 17mph /  27.4km/h 90% 0in /  0.0mm 7 W/m2
19:16 49.3 °F /  9.6 °C 46.4 °F /  8 °C 29.6in /  1001.4hPa West 6.9mph /  11.1km/h 9mph /  14.5km/h 90% 0in /  0.0mm 7 W/m2
19:21 49.3 °F /  9.6 °C 46.4 °F /  8 °C 29.6in /  1001.4hPa WNW 8.1mph /  13km/h 11mph /  17.7km/h 90% 0in /  0.0mm 5 W/m2
19:26 49.3 °F /  9.6 °C 46.2 °F /  7.9 °C 29.6in /  1001.4hPa WNW 6mph /  9.7km/h 10mph /  16.1km/h 89% 0in /  0.0mm 0 W/m2
19:31 49.3 °F /  9.6 °C 46.4 °F /  8 °C 29.6in /  1001.4hPa SW 4.9mph /  7.9km/h 11mph /  17.7km/h 90% 0in /  0.0mm 0 W/m2
19:36 49.3 °F /  9.6 °C 46.2 °F /  7.9 °C 29.6in /  1001.4hPa WNW 2.9mph /  4.7km/h 9mph /  14.5km/h 89% 0in /  0.0mm 0 W/m2
19:41 49.3 °F /  9.6 °C 46.2 °F /  7.9 °C 29.6in /  1001.4hPa WNW 4.9mph /  7.9km/h 11mph /  17.7km/h 89% 0in /  0.0mm 0 W/m2
19:46 49.3 °F /  9.6 °C 46.2 °F /  7.9 °C 29.6in /  1001.7hPa West 4mph /  6.4km/h 8mph /  12.9km/h 89% 0in /  0.0mm 0 W/m2
19:51 49.3 °F /  9.6 °C 46.2 °F /  7.9 °C 29.6in /  1001.4hPa West 4mph /  6.4km/h 9mph /  14.5km/h 89% 0in /  0.0mm 0 W/m2
19:56 49.3 °F /  9.6 °C 46.4 °F /  8 °C 29.6in /  1001.7hPa WNW 10.1mph /  16.3km/h 11mph /  17.7km/h 90% 0in /  0.0mm 0 W/m2
20:01 49.3 °F /  9.6 °C 46.4 °F /  8 °C 29.6in /  1001.7hPa West 4mph /  6.4km/h 7mph /  11.3km/h 90% 0in /  0.0mm 0 W/m2
20:06 49.1 °F /  9.5 °C 46.2 °F /  7.9 °C 29.6in /  1001.7hPa WSW 6.9mph /  11.1km/h 10mph /  16.1km/h 90% 0in /  0.0mm 0 W/m2
20:11 49.1 °F /  9.5 °C 46.6 °F /  8.1 °C 29.6in /  1001.7hPa WSW 4.9mph /  7.9km/h 11mph /  17.7km/h 91% 0in /  0.0mm 0 W/m2
20:16 49.1 °F /  9.5 °C 46.6 °F /  8.1 °C 29.6in /  1001.7hPa West 6mph /  9.7km/h 10mph /  16.1km/h 91% 0in /  0.0mm 0 W/m2
20:21 48.9 °F /  9.4 °C 46.4 °F /  8 °C 29.6in /  1001.4hPa West 6.9mph /  11.1km/h 9mph /  14.5km/h 91% 0in /  0.0mm 0 W/m2
20:26 48.9 °F /  9.4 °C 46.4 °F /  8 °C 29.6in /  1001.4hPa NW 6mph /  9.7km/h 11mph /  17.7km/h 91% 0in /  0.0mm 0 W/m2
20:31 48.7 °F /  9.3 °C 46.2 °F /  7.9 °C 29.6in /  1001.4hPa West 4mph /  6.4km/h 11mph /  17.7km/h 91% 0in /  0.0mm 0 W/m2
20:36 48.7 °F /  9.3 °C 46.2 °F /  7.9 °C 29.6in /  1001.4hPa West 6mph /  9.7km/h 12mph /  19.3km/h 91% 0in /  0.0mm 0 W/m2
20:41 48.7 °F /  9.3 °C 46.2 °F /  7.9 °C 29.6in /  1001.4hPa NW 4.9mph /  7.9km/h 11mph /  17.7km/h 91% 0in /  0.0mm 0 W/m2
20:46 48.7 °F /  9.3 °C 46.2 °F /  7.9 °C 29.6in /  1001.4hPa West 6.9mph /  11.1km/h 11mph /  17.7km/h 91% 0in /  0.0mm 0 W/m2
20:51 48.7 °F /  9.3 °C 46.2 °F /  7.9 °C 29.6in /  1001.4hPa WSW 8.1mph /  13km/h 11mph /  17.7km/h 91% 0in /  0.0mm 0 W/m2
20:56 48.7 °F /  9.3 °C 46.2 °F /  7.9 °C 29.6in /  1001.4hPa WNW 4mph /  6.4km/h 10mph /  16.1km/h 91% 0in /  0.0mm 0 W/m2
21:01 48.7 °F /  9.3 °C 46.2 °F /  7.9 °C 29.6in /  1001.4hPa NW 4.9mph /  7.9km/h 9mph /  14.5km/h 91% 0in /  0.0mm 0 W/m2
21:06 48.6 °F /  9.2 °C 46 °F /  7.8 °C 29.6in /  1001.4hPa WNW 8.1mph /  13km/h 12mph /  19.3km/h 91% 0in /  0.0mm 0 W/m2
21:11 48.6 °F /  9.2 °C 46 °F /  7.8 °C 29.6in /  1001.4hPa West 8.9mph /  14.3km/h 11mph /  17.7km/h 91% 0in /  0.0mm 0 W/m2
21:16 48.6 °F /  9.2 °C 46.4 °F /  8 °C 29.6in /  1001.4hPa WNW 4mph /  6.4km/h 8mph /  12.9km/h 92% 0in /  0.0mm 0 W/m2
21:22 48.6 °F /  9.2 °C 46.4 °F /  8 °C 29.6in /  1001.4hPa West 4mph /  6.4km/h 8mph /  12.9km/h 92% 0in /  0.0mm 0 W/m2
21:27 48.6 °F /  9.2 °C 46.4 °F /  8 °C 29.6in /  1001.4hPa WNW 6.9mph /  11.1km/h 10mph /  16.1km/h 92% 0in /  0.0mm 0 W/m2
21:32 48.6 °F /  9.2 °C 46.4 °F /  8 °C 29.6in /  1001.4hPa West 6mph /  9.7km/h 8mph /  12.9km/h 92% 0in /  0.0mm 0 W/m2
21:37 48.4 °F /  9.1 °C 46.2 °F /  7.9 °C 29.6in /  1001.4hPa WNW 4.9mph /  7.9km/h 7mph /  11.3km/h 92% 0in /  0.0mm 0 W/m2
21:42 48.4 °F /  9.1 °C 46.2 °F /  7.9 °C 29.6in /  1001.4hPa WSW 8.9mph /  14.3km/h 12mph /  19.3km/h 92% 0in /  0.0mm 0 W/m2
21:47 48.4 °F /  9.1 °C 46.2 °F /  7.9 °C 29.6in /  1001.4hPa WSW 4mph /  6.4km/h 8mph /  12.9km/h 92% 0in /  0.0mm 0 W/m2
21:52 48.4 °F /  9.1 °C 46.2 °F /  7.9 °C 29.6in /  1001.4hPa West 2.9mph /  4.7km/h 9mph /  14.5km/h 92% 0in /  0.0mm 0 W/m2
21:57 48.2 °F /  9 °C 46 °F /  7.8 °C 29.6in /  1001.4hPa SW 4mph /  6.4km/h 11mph /  17.7km/h 92% 0in /  0.0mm 0 W/m2
22:02 48.4 °F /  9.1 °C 46.2 °F /  7.9 °C 29.6in /  1001.4hPa West 6mph /  9.7km/h 15mph /  24.1km/h 92% 0in /  0.0mm 0 W/m2
22:07 48.4 °F /  9.1 °C 46.2 °F /  7.9 °C 29.6in /  1001.4hPa WNW 4.9mph /  7.9km/h 10mph /  16.1km/h 92% 0in /  0.0mm 0 W/m2
22:12 48.4 °F /  9.1 °C 46.2 °F /  7.9 °C 29.6in /  1001.4hPa WNW 2.9mph /  4.7km/h 15mph /  24.1km/h 92% 0in /  0.0mm 0 W/m2
22:17 48.4 °F /  9.1 °C 46.2 °F /  7.9 °C 29.6in /  1001.4hPa WNW 6.9mph /  11.1km/h 8mph /  12.9km/h 92% 0in /  0.0mm 0 W/m2
22:22 48.4 °F /  9.1 °C 46.2 °F /  7.9 °C 29.6in /  1001.4hPa WSW 8.1mph /  13km/h 11mph /  17.7km/h 92% 0in /  0.0mm 0 W/m2
22:27 48.4 °F /  9.1 °C 46.2 °F /  7.9 °C 29.6in /  1001.0hPa West 8.1mph /  13km/h 9mph /  14.5km/h 92% 0in /  0.0mm 0 W/m2
22:32 48.4 °F /  9.1 °C 46.2 °F /  7.9 °C 29.6in /  1001.0hPa WNW 8.1mph /  13km/h 12mph /  19.3km/h 92% 0in /  0.0mm 0 W/m2
22:37 48.4 °F /  9.1 °C 46.2 °F /  7.9 °C 29.6in /  1001.4hPa West 6mph /  9.7km/h 12mph /  19.3km/h 92% 0in /  0.0mm 0 W/m2
22:42 48.4 °F /  9.1 °C 46.2 °F /  7.9 °C 29.6in /  1001.0hPa WNW 4mph /  6.4km/h 10mph /  16.1km/h 92% 0in /  0.0mm 0 W/m2
22:47 48.6 °F /  9.2 °C 46.6 °F /  8.1 °C 29.6in /  1001.0hPa WNW 4.9mph /  7.9km/h 10mph /  16.1km/h 93% 0in /  0.0mm 0 W/m2
22:52 48.6 °F /  9.2 °C 46.6 °F /  8.1 °C 29.6in /  1001.0hPa SW 4mph /  6.4km/h 11mph /  17.7km/h 93% 0in /  0.0mm 0 W/m2
22:57 48.6 °F /  9.2 °C 46.4 °F /  8 °C 29.6in /  1001.0hPa West 6mph /  9.7km/h 12mph /  19.3km/h 92% 0in /  0.0mm 0 W/m2
23:02 48.6 °F /  9.2 °C 46.6 °F /  8.1 °C 29.6in /  1001.0hPa West 6mph /  9.7km/h 13mph /  20.9km/h 93% 0in /  0.0mm 0 W/m2
23:07 48.6 °F /  9.2 °C 46.6 °F /  8.1 °C 29.6in /  1001.0hPa WSW 4.9mph /  7.9km/h 8mph /  12.9km/h 93% 0in /  0.0mm 0 W/m2
23:12 48.6 °F /  9.2 °C 46.6 °F /  8.1 °C 29.6in /  1001.0hPa West 2.9mph /  4.7km/h 7mph /  11.3km/h 93% 0in /  0.0mm 0 W/m2
23:17 48.6 °F /  9.2 °C 46.6 °F /  8.1 °C 29.6in /  1001.0hPa WSW 4mph /  6.4km/h 10mph /  16.1km/h 93% 0in /  0.0mm 0 W/m2
23:22 48.6 °F /  9.2 °C 46.6 °F /  8.1 °C 29.6in /  1001.0hPa WNW 4mph /  6.4km/h 12mph /  19.3km/h 93% 0in /  0.0mm 0 W/m2
23:27 48.6 °F /  9.2 °C 46.6 °F /  8.1 °C 29.6in /  1001.0hPa WNW 2.9mph /  4.7km/h 10mph /  16.1km/h 93% 0in /  0.0mm 0 W/m2
23:32 48.6 °F /  9.2 °C 46.6 °F /  8.1 °C 29.6in /  1001.0hPa West 6mph /  9.7km/h 12mph /  19.3km/h 93% 0in /  0.0mm 0 W/m2
23:37 48.7 °F /  9.3 °C 46.8 °F /  8.2 °C 29.6in /  1001.0hPa SW 10.1mph /  16.3km/h 10mph /  16.1km/h 93% 0in /  0.0mm 0 W/m2
23:42 48.7 °F /  9.3 °C 46.8 °F /  8.2 °C 29.6in /  1001.0hPa SW 4mph /  6.4km/h 7mph /  11.3km/h 93% 0in /  0.0mm 0 W/m2
23:48 48.7 °F /  9.3 °C 46.8 °F /  8.2 °C 29.6in /  1001.0hPa WSW 4mph /  6.4km/h 7mph /  11.3km/h 93% 0in /  0.0mm 0 W/m2
23:53 48.7 °F /  9.3 °C 46.8 °F /  8.2 °C 29.6in /  1000.7hPa West 6mph /  9.7km/h 8mph /  12.9km/h 93% 0in /  0.0mm 0 W/m2
23:58 48.7 °F /  9.3 °C 46.8 °F /  8.2 °C 29.6in /  1000.7hPa WNW 0.9mph /  1.4km/h 8mph /  12.9km/h 93% 0in /  0.0mm 0 W/m2
Juneau County Weather
Compliments of Weather Underground - 4 mb